Time;durP1;ratioP1;P1;durP2;ratioP2;P2;SDS_P1;SDS_P2;PMS_P1;PMS_P2;Temp;Humidity;BMP_temperature;BMP_pressure;BME280_temperature;BME280_humidity;BME280_pressure;Samples;Min_cycle;Max_cycle;Signal;HPM_P1;HPM_P2
2022/06/16 00:02:13;;;;;;;8.45;4.43;;;17.80;99.90;;;;;;5049343;28;20021;-77
2022/06/16 00:04:38;;;;;;;8.05;4.57;;;17.80;99.90;;;;;;5049593;28;20021;-77
2022/06/16 00:07:04;;;;;;;6.28;4.30;;;17.80;99.90;;;;;;5049737;28;20071;-77
2022/06/16 00:09:29;;;;;;;9.13;4.80;;;17.70;99.90;;;;;;5057503;28;20508;-77
2022/06/16 00:11:55;;;;;;;7.43;4.00;;;17.70;99.90;;;;;;5049777;28;20124;-77
2022/06/16 00:14:27;;;;;;;9.05;4.60;;;17.60;99.90;;;;;;5049476;28;20033;-77
2022/06/16 00:16:54;;;;;;;9.52;4.53;;;17.60;99.90;;;;;;5035577;28;20037;-77
2022/06/16 00:19:19;;;;;;;6.57;4.60;;;17.60;99.90;;;;;;5049396;28;20052;-77
2022/06/16 00:21:45;;;;;;;9.70;4.82;;;17.60;99.90;;;;;;5051452;28;20482;-77
2022/06/16 00:24:10;;;;;;;8.45;4.60;;;17.50;99.90;;;;;;5069582;28;20024;-77
2022/06/16 00:26:36;;;;;;;9.38;4.75;;;17.50;99.90;;;;;;5068547;28;20028;-77
2022/06/16 00:29:02;;;;;;;9.10;5.18;;;17.50;99.90;;;;;;5068780;28;20028;-77
2022/06/16 00:31:28;;;;;;;9.07;4.60;;;17.40;99.90;;;;;;5070035;28;20031;-77
2022/06/16 00:33:53;;;;;;;9.32;4.90;;;17.40;99.90;;;;;;5073175;28;20016;-76
2022/06/16 00:36:19;;;;;;;10.50;5.32;;;17.30;99.90;;;;;;5073060;28;20022;-77
2022/06/16 00:38:45;;;;;;;8.93;5.22;;;17.30;99.90;;;;;;5054727;28;20151;-77
2022/06/16 00:41:11;;;;;;;9.93;5.03;;;17.30;99.90;;;;;;5070036;28;20102;-77
2022/06/16 00:43:37;;;;;;;10.70;5.00;;;17.20;99.90;;;;;;5073170;28;20476;-77
2022/06/16 00:46:06;;;;;;;10.40;5.25;;;17.20;99.90;;;;;;5072932;28;20468;-77
2022/06/16 00:48:56;;;;;;;8.65;4.65;;;17.20;99.90;;;;;;5055136;28;20127;-77
2022/06/16 00:51:39;;;;;;;9.73;5.30;;;17.10;99.90;;;;;;5072345;28;20031;-77
2022/06/16 00:54:11;;;;;;;8.65;5.07;;;17.10;99.90;;;;;;5072592;28;20082;-77
2022/06/16 00:56:36;;;;;;;9.60;4.95;;;17.00;99.90;;;;;;5072814;28;20044;-77
2022/06/16 00:59:04;;;;;;;6.45;3.95;;;17.00;99.90;;;;;;5072682;28;20025;-77
2022/06/16 01:01:31;;;;;;;7.55;4.78;;;16.90;99.90;;;;;;5054296;28;20032;-77
2022/06/16 01:06:43;;;;;;;8.40;5.20;;;16.90;99.90;;;;;;5059294;28;20067;-77
2022/06/16 01:09:18;;;;;;;7.13;5.18;;;16.80;99.90;;;;;;5072590;28;20093;-77
2022/06/16 01:15:06;;;;;;;7.43;5.30;;;16.80;99.90;;;;;;5072653;28;20090;-77
2022/06/16 01:17:47;;;;;;;9.98;5.38;;;16.70;99.90;;;;;;5072711;28;20040;-77
2022/06/16 01:20:33;;;;;;;9.48;5.10;;;16.70;99.90;;;;;;5072173;28;20276;-77
2022/06/16 01:23:17;;;;;;;9.45;5.18;;;16.70;99.90;;;;;;5071880;28;20071;-77
2022/06/16 01:26:16;;;;;;;9.70;5.43;;;16.60;99.90;;;;;;5071725;28;20032;-78
2022/06/16 01:29:09;;;;;;;8.20;5.75;;;16.60;99.90;;;;;;5071736;28;20035;-77
2022/06/16 01:31:41;;;;;;;9.57;5.72;;;16.50;99.90;;;;;;5071687;28;20074;-77
2022/06/16 01:34:20;;;;;;;8.50;5.57;;;16.50;99.90;;;;;;5072226;28;20392;-77
2022/06/16 01:36:57;;;;;;;9.90;5.95;;;16.40;99.90;;;;;;5072039;28;20569;-77
2022/06/16 01:39:47;;;;;;;10.52;5.70;;;16.40;99.90;;;;;;5071195;28;20045;-77
2022/06/16 01:42:23;;;;;;;13.35;5.68;;;16.40;99.90;;;;;;5071139;28;20493;-78
2022/06/16 01:45:06;;;;;;;8.15;5.93;;;16.40;99.90;;;;;;5071931;28;20317;-77
2022/06/16 01:47:35;;;;;;;8.63;5.43;;;16.30;99.90;;;;;;5071999;28;20078;-77
2022/06/16 01:50:10;;;;;;;9.60;6.03;;;16.30;99.90;;;;;;5071522;28;20048;-77
2022/06/16 01:52:42;;;;;;;8.10;5.95;;;16.30;99.90;;;;;;5071555;28;20466;-77
2022/06/16 01:55:13;;;;;;;8.57;6.18;;;16.20;99.90;;;;;;5071669;28;20025;-77
2022/06/16 01:57:49;;;;;;;8.40;5.75;;;16.20;99.90;;;;;;5071698;28;20031;-77
2022/06/16 02:00:18;;;;;;;10.30;5.75;;;16.10;99.90;;;;;;5071301;28;20056;-78
2022/06/16 02:02:47;;;;;;;8.27;5.70;;;16.10;99.90;;;;;;5071111;28;20123;-77
2022/06/16 02:05:42;;;;;;;12.80;5.63;;;16.10;99.90;;;;;;5071329;28;20028;-77
2022/06/16 02:08:15;;;;;;;11.35;6.07;;;16.10;99.90;;;;;;5071195;28;20027;-77
2022/06/16 02:10:44;;;;;;;9.95;5.25;;;16.00;99.90;;;;;;5071168;28;20032;-77
2022/06/16 02:13:14;;;;;;;10.43;5.38;;;16.00;99.90;;;;;;5071279;28;20589;-77
2022/06/16 02:15:59;;;;;;;9.73;5.30;;;16.00;99.90;;;;;;5060867;28;20802;-77
2022/06/16 02:18:31;;;;;;;8.77;5.72;;;16.00;99.90;;;;;;5066347;28;20021;-77
2022/06/16 02:21:26;;;;;;;8.98;5.47;;;15.90;99.90;;;;;;5052186;28;20396;-78
2022/06/16 02:23:52;;;;;;;9.50;5.40;;;15.90;99.90;;;;;;5066597;28;20107;-77
2022/06/16 02:26:19;;;;;;;8.18;5.80;;;15.80;99.90;;;;;;5071075;28;20028;-77
2022/06/16 02:28:49;;;;;;;8.23;5.10;;;15.90;99.90;;;;;;5070540;28;20065;-77
2022/06/16 02:31:17;;;;;;;8.32;5.00;;;15.80;99.90;;;;;;5070294;28;20028;-77
2022/06/16 02:34:16;;;;;;;8.82;5.55;;;15.80;99.90;;;;;;5066450;28;20024;-77
2022/06/16 02:37:18;;;;;;;8.65;5.45;;;15.80;99.90;;;;;;5027972;28;20068;-77
2022/06/16 02:40:03;;;;;;;9.68;5.38;;;15.70;99.90;;;;;;5027807;28;20452;-77
2022/06/16 02:42:42;;;;;;;6.32;4.65;;;15.70;99.90;;;;;;5023994;28;20465;-77
2022/06/16 02:45:37;;;;;;;8.00;5.53;;;15.70;99.90;;;;;;5028384;28;20095;-77
2022/06/16 02:48:17;;;;;;;10.10;5.07;;;15.70;99.90;;;;;;5027681;28;20453;-77
2022/06/16 02:50:51;;;;;;;9.18;5.50;;;15.60;99.90;;;;;;5028064;28;20067;-77
2022/06/16 02:56:25;;;;;;;10.00;5.07;;;15.60;99.90;;;;;;5024157;28;20471;-77
2022/06/16 02:58:51;;;;;;;8.27;5.20;;;15.50;99.90;;;;;;5024495;28;20117;-77
2022/06/16 03:01:19;;;;;;;10.20;5.57;;;15.50;99.90;;;;;;5027610;28;20060;-77
2022/06/16 03:04:02;;;;;;;8.18;5.60;;;15.50;99.90;;;;;;5028080;28;20176;-77
2022/06/16 03:06:27;;;;;;;8.10;5.68;;;15.40;99.90;;;;;;5027213;28;20049;-77
2022/06/16 03:08:53;;;;;;;10.27;6.05;;;15.40;99.90;;;;;;5027564;28;20044;-77
2022/06/16 03:11:19;;;;;;;7.90;5.45;;;15.40;99.90;;;;;;5029619;28;20040;-78
2022/06/16 03:13:45;;;;;;;11.45;5.97;;;15.30;99.90;;;;;;5045478;28;20435;-78
2022/06/16 03:16:11;;;;;;;9.20;5.90;;;15.30;99.90;;;;;;5069518;28;20040;-77
2022/06/16 03:18:36;;;;;;;11.05;6.07;;;15.30;99.90;;;;;;5070397;28;20476;-77
2022/06/16 03:21:02;;;;;;;10.55;6.38;;;15.20;99.90;;;;;;5070621;28;20016;-77
2022/06/16 03:23:28;;;;;;;12.30;5.80;;;15.20;99.90;;;;;;5062412;28;20665;-77
2022/06/16 03:25:53;;;;;;;9.02;6.53;;;15.20;99.90;;;;;;5068966;28;20025;-77
2022/06/16 03:28:19;;;;;;;11.70;5.80;;;15.10;99.90;;;;;;5059720;28;20073;-77
2022/06/16 03:30:45;;;;;;;9.30;6.20;;;15.10;99.90;;;;;;5069903;28;20360;-77
2022/06/16 03:33:11;;;;;;;9.82;6.53;;;15.10;99.90;;;;;;5069880;28;20024;-77
2022/06/16 03:35:39;;;;;;;10.13;6.45;;;15.10;99.90;;;;;;5069932;28;20037;-77
2022/06/16 03:38:11;;;;;;;11.68;6.40;;;15.10;99.90;;;;;;5069459;28;20040;-77
2022/06/16 03:40:37;;;;;;;9.50;6.47;;;15.10;99.90;;;;;;5070499;28;20025;-77
2022/06/16 03:43:05;;;;;;;9.13;6.55;;;15.10;99.90;;;;;;5069381;28;20427;-77
2022/06/16 03:45:30;;;;;;;11.98;6.57;;;15.10;99.90;;;;;;5069779;28;20035;-77
2022/06/16 03:47:56;;;;;;;11.00;6.70;;;15.10;99.90;;;;;;5069677;28;20020;-77
2022/06/16 03:50:22;;;;;;;9.05;6.43;;;15.10;99.90;;;;;;5038096;28;20095;-77
2022/06/16 03:52:47;;;;;;;10.07;6.97;;;15.20;99.90;;;;;;5069669;28;20016;-77
2022/06/16 03:55:13;;;;;;;9.60;6.78;;;15.20;99.90;;;;;;5069788;28;20499;-77
2022/06/16 03:57:38;;;;;;;10.07;6.28;;;15.20;99.90;;;;;;5070016;28;20424;-77
2022/06/16 04:00:06;;;;;;;12.95;7.38;;;15.20;99.90;;;;;;5069663;28;20023;-77
2022/06/16 04:02:32;;;;;;;12.02;6.85;;;15.20;99.90;;;;;;5069821;28;20476;-77
2022/06/16 04:04:57;;;;;;;13.45;6.43;;;15.30;99.90;;;;;;5069791;28;20099;-77
2022/06/16 04:07:23;;;;;;;10.40;7.07;;;15.30;99.90;;;;;;5051098;28;20581;-77
2022/06/16 04:09:48;;;;;;;10.50;6.82;;;15.30;99.90;;;;;;5053914;28;20024;-77
2022/06/16 04:12:14;;;;;;;11.45;7.03;;;15.30;99.90;;;;;;5053735;28;20021;-77
2022/06/16 04:14:39;;;;;;;12.77;6.78;;;15.30;99.90;;;;;;5053217;28;20087;-77
2022/06/16 04:17:06;;;;;;;11.25;7.07;;;15.30;99.90;;;;;;5057074;28;20397;-77
2022/06/16 04:19:32;;;;;;;11.15;6.38;;;15.30;99.90;;;;;;5073035;28;20549;-77
2022/06/16 04:21:57;;;;;;;11.68;6.95;;;15.30;99.90;;;;;;5072830;28;20025;-77
2022/06/16 04:24:24;;;;;;;14.45;7.53;;;15.40;99.90;;;;;;5070673;28;20024;-78
2022/06/16 04:26:51;;;;;;;10.65;6.82;;;15.40;99.90;;;;;;5043819;28;20025;-78
2022/06/16 04:29:18;;;;;;;10.77;6.50;;;15.40;99.90;;;;;;5068656;28;20041;-78
2022/06/16 04:31:44;;;;;;;11.98;7.00;;;15.40;99.90;;;;;;5063936;28;20021;-78
2022/06/16 04:34:09;;;;;;;9.30;6.38;;;15.40;99.90;;;;;;5069693;28;20029;-77
2022/06/16 04:36:35;;;;;;;12.48;7.32;;;15.40;99.90;;;;;;5057925;28;20032;-78
2022/06/16 04:39:01;;;;;;;11.35;6.72;;;15.40;99.90;;;;;;5049209;28;20032;-78
2022/06/16 04:41:27;;;;;;;8.98;6.32;;;15.40;99.90;;;;;;5073223;28;20126;-78
2022/06/16 04:43:53;;;;;;;9.60;6.47;;;15.40;99.90;;;;;;5059110;28;20013;-78
2022/06/16 04:46:20;;;;;;;12.98;6.80;;;15.40;99.90;;;;;;5054978;28;20195;-78
2022/06/16 04:48:46;;;;;;;9.25;6.30;;;15.40;99.90;;;;;;5052339;28;20036;-78
2022/06/16 04:51:13;;;;;;;11.52;6.53;;;15.50;99.90;;;;;;5069675;28;20029;-78
2022/06/16 04:53:39;;;;;;;9.98;6.05;;;15.50;99.90;;;;;;5072747;28;20036;-78
2022/06/16 04:56:06;;;;;;;11.07;6.38;;;15.60;99.90;;;;;;5056541;28;20032;-78
2022/06/16 04:58:32;;;;;;;11.52;6.45;;;15.70;99.90;;;;;;5057511;28;20048;-78
2022/06/16 05:00:58;;;;;;;9.25;6.25;;;15.70;99.90;;;;;;5067163;28;20380;-79
2022/06/16 05:03:26;;;;;;;10.48;6.40;;;15.80;99.90;;;;;;5072899;28;20017;-79
2022/06/16 05:05:53;;;;;;;7.93;5.68;;;15.90;99.90;;;;;;5072866;28;20056;-78
2022/06/16 05:08:19;;;;;;;9.95;6.13;;;16.00;99.90;;;;;;5072757;28;20023;-78
2022/06/16 05:10:47;;;;;;;7.95;5.70;;;16.00;99.90;;;;;;5072695;28;20381;-78
2022/06/16 05:13:13;;;;;;;7.90;5.13;;;16.10;99.90;;;;;;5072506;28;20104;-78
2022/06/16 05:15:39;;;;;;;9.55;5.35;;;16.10;99.90;;;;;;5072879;28;20444;-78
2022/06/16 05:18:05;;;;;;;8.45;5.28;;;16.20;99.90;;;;;;5066367;28;20091;-78
2022/06/16 05:20:30;;;;;;;10.02;4.75;;;16.30;99.90;;;;;;5057588;28;20029;-79
2022/06/16 05:22:56;;;;;;;9.50;4.97;;;16.40;99.90;;;;;;5068394;28;20060;-79
2022/06/16 05:25:22;;;;;;;11.27;5.00;;;16.50;99.90;;;;;;5061661;28;20591;-79
2022/06/16 05:27:48;;;;;;;6.80;4.80;;;16.50;99.90;;;;;;5070478;28;20024;-79
2022/06/16 05:30:14;;;;;;;7.72;4.85;;;16.60;99.90;;;;;;5053498;28;20481;-79
2022/06/16 05:32:40;;;;;;;10.32;4.88;;;16.70;99.90;;;;;;5071891;28;20071;-79
2022/06/16 05:35:06;;;;;;;7.28;4.82;;;16.70;99.90;;;;;;5071484;28;20046;-79
2022/06/16 05:37:32;;;;;;;10.45;4.85;;;16.80;99.90;;;;;;5072213;28;20039;-79
2022/06/16 05:39:57;;;;;;;10.68;4.38;;;16.80;99.90;;;;;;5071974;28;20021;-79
2022/06/16 05:42:23;;;;;;;12.38;4.45;;;16.80;99.90;;;;;;5072022;28;20385;-80
2022/06/16 05:44:49;;;;;;;9.43;4.10;;;16.80;99.90;;;;;;5068976;28;20024;-79
2022/06/16 05:47:14;;;;;;;9.65;5.32;;;16.80;99.90;;;;;;5071927;28;20360;-79
2022/06/16 05:49:42;;;;;;;9.98;4.60;;;16.80;99.90;;;;;;5069076;28;20097;-80
2022/06/16 05:52:14;;;;;;;7.45;4.22;;;16.80;99.90;;;;;;5060866;28;20518;-79
2022/06/16 05:54:40;;;;;;;9.05;3.70;;;16.80;99.90;;;;;;5071904;28;20020;-78
2022/06/16 05:57:07;;;;;;;5.60;3.58;;;16.80;99.90;;;;;;5071963;28;20384;-78
2022/06/16 05:59:33;;;;;;;8.85;4.28;;;16.80;99.90;;;;;;5053033;28;20021;-77
2022/06/16 06:01:58;;;;;;;9.45;4.32;;;16.80;99.90;;;;;;5053457;28;20479;-79
2022/06/16 06:04:24;;;;;;;10.50;4.07;;;16.80;99.90;;;;;;5070844;28;20394;-77
2022/06/16 06:06:50;;;;;;;7.07;3.97;;;16.80;99.90;;;;;;5069786;28;20016;-78
2022/06/16 06:17:29;;;;;;;9.18;4.35;;;16.90;99.90;;;;;;5059822;28;20082;-79
2022/06/16 06:19:54;;;;;;;10.60;4.40;;;17.00;99.90;;;;;;5059605;28;20565;-80
2022/06/16 06:22:25;;;;;;;7.30;3.55;;;17.10;99.90;;;;;;5063885;28;20052;-80
2022/06/16 06:24:54;;;;;;;5.70;3.70;;;17.10;99.60;;;;;;5069415;28;20483;-81
2022/06/16 06:27:22;;;;;;;8.15;3.67;;;17.20;98.90;;;;;;5070018;28;20143;-81
2022/06/16 06:29:49;;;;;;;8.30;4.15;;;17.20;98.20;;;;;;5067535;28;20037;-80
2022/06/16 06:32:16;;;;;;;10.52;4.30;;;17.30;97.90;;;;;;5065736;28;20104;-81
2022/06/16 06:34:42;;;;;;;9.73;4.30;;;17.40;97.70;;;;;;5062770;28;20048;-80
2022/06/16 06:37:10;;;;;;;8.18;3.75;;;17.40;97.80;;;;;;5041185;28;20472;-81
2022/06/16 06:39:36;;;;;;;6.85;4.10;;;17.50;97.90;;;;;;5043695;28;20488;-80
2022/06/16 06:42:03;;;;;;;9.93;4.10;;;17.70;97.70;;;;;;5056040;28;20230;-81
2022/06/16 06:44:29;;;;;;;8.73;4.00;;;17.70;97.50;;;;;;5047683;28;20055;-81
2022/06/16 06:46:55;;;;;;;9.23;3.88;;;17.80;97.30;;;;;;5056625;28;20020;-81
2022/06/16 06:49:21;;;;;;;7.30;3.80;;;17.90;96.90;;;;;;5051083;28;20074;-81
2022/06/16 06:51:47;;;;;;;9.60;5.22;;;18.00;96.80;;;;;;5059450;28;20038;-81
2022/06/16 06:54:13;;;;;;;7.07;3.65;;;18.10;96.30;;;;;;5059882;28;20052;-83
2022/06/16 06:56:38;;;;;;;8.77;3.97;;;18.30;95.80;;;;;;5048780;28;20048;-81
2022/06/16 06:59:06;;;;;;;4.53;3.20;;;18.40;95.30;;;;;;5048968;28;20035;-79
2022/06/16 07:01:33;;;;;;;4.25;2.70;;;18.50;94.30;;;;;;5061652;28;20041;-80
2022/06/16 07:04:02;;;;;;;6.30;3.25;;;18.60;93.40;;;;;;5062640;28;20012;-83
2022/06/16 07:06:28;;;;;;;6.25;3.10;;;18.70;92.50;;;;;;5040772;28;20340;-83
2022/06/16 07:08:54;;;;;;;8.50;2.95;;;18.80;91.50;;;;;;5063879;28;20046;-80
2022/06/16 07:11:20;;;;;;;6.63;2.67;;;19.00;90.90;;;;;;5062974;28;20458;-81
2022/06/16 07:13:45;;;;;;;4.72;2.90;;;19.10;90.00;;;;;;5061098;28;20024;-81
2022/06/16 07:16:11;;;;;;;4.72;2.38;;;19.20;88.80;;;;;;5047733;28;20029;-82
2022/06/16 07:18:37;;;;;;;5.80;2.78;;;19.30;86.50;;;;;;5071958;28;20044;-83
2022/06/16 07:21:04;;;;;;;7.90;2.55;;;19.40;84.90;;;;;;5034878;28;20021;-82
2022/06/16 07:23:30;;;;;;;9.68;2.50;;;19.60;83.20;;;;;;5054068;28;20064;-82
2022/06/16 07:25:55;;;;;;;5.50;2.50;;;19.70;82.00;;;;;;5056724;28;20068;-80
2022/06/16 07:28:21;;;;;;;6.45;2.67;;;19.80;81.30;;;;;;5056171;28;20041;-82
2022/06/16 07:30:47;;;;;;;9.85;3.08;;;20.00;80.80;;;;;;5056896;28;20025;-82
2022/06/16 07:33:13;;;;;;;7.30;2.83;;;20.10;79.70;;;;;;5060020;28;20483;-81
2022/06/16 07:35:41;;;;;;;8.15;2.60;;;20.30;78.20;;;;;;5067277;28;20029;-82
2022/06/16 07:38:07;;;;;;;4.75;2.50;;;20.40;77.00;;;;;;5066740;28;20147;-82
2022/06/16 07:40:34;;;;;;;6.05;2.78;;;20.60;75.60;;;;;;5062991;28;20021;-80
2022/06/16 07:42:59;;;;;;;6.50;2.42;;;20.80;74.40;;;;;;5063976;28;20029;-80
2022/06/16 07:45:27;;;;;;;8.13;2.75;;;20.90;73.70;;;;;;5066713;28;20161;-80
2022/06/16 07:47:57;;;;;;;7.22;2.75;;;21.10;72.50;;;;;;5064497;28;20524;-80
2022/06/16 07:50:23;;;;;;;7.75;2.83;;;21.30;71.40;;;;;;5061509;28;20016;-80
2022/06/16 07:52:49;;;;;;;7.30;3.00;;;21.50;69.80;;;;;;5063135;28;20122;-80
2022/06/16 07:55:17;;;;;;;6.53;2.65;;;21.60;68.70;;;;;;5064896;28;20428;-80
2022/06/16 07:57:47;;;;;;;5.55;2.28;;;21.70;68.40;;;;;;5061747;28;20013;-80
2022/06/16 08:00:20;;;;;;;6.22;2.78;;;21.90;68.00;;;;;;5064857;28;20123;-80
2022/06/16 08:02:46;;;;;;;5.68;2.50;;;22.10;66.40;;;;;;5078203;28;20035;-81
2022/06/16 08:05:13;;;;;;;5.35;2.70;;;22.20;65.60;;;;;;5080451;28;20040;-82
2022/06/16 08:07:40;;;;;;;4.15;2.58;;;22.30;64.80;;;;;;5063889;28;20020;-80
2022/06/16 08:10:08;;;;;;;8.98;2.60;;;22.50;65.10;;;;;;5081667;28;20036;-80
2022/06/16 08:12:34;;;;;;;8.10;2.40;;;22.60;63.90;;;;;;5067455;28;20033;-80
2022/06/16 08:15:00;;;;;;;6.97;2.80;;;22.70;63.60;;;;;;5067419;28;20441;-79
2022/06/16 08:17:31;;;;;;;7.60;2.85;;;22.90;62.50;;;;;;5066228;28;20190;-80
2022/06/16 08:19:58;;;;;;;6.40;2.30;;;23.00;60.50;;;;;;5074333;28;20423;-81
2022/06/16 08:22:25;;;;;;;5.47;2.53;;;22.90;60.30;;;;;;5053205;28;20048;-81
2022/06/16 08:24:50;;;;;;;5.88;2.58;;;23.00;60.20;;;;;;5076287;28;20028;-81
2022/06/16 08:27:20;;;;;;;6.90;3.05;;;23.10;60.00;;;;;;5066882;28;20357;-80
2022/06/16 08:29:47;;;;;;;6.47;2.78;;;23.20;59.20;;;;;;5056342;28;20098;-80
2022/06/16 08:32:18;;;;;;;7.47;2.83;;;23.30;59.20;;;;;;5067444;28;20292;-79
2022/06/16 08:34:44;;;;;;;9.05;2.50;;;23.50;58.60;;;;;;5078563;28;20119;-80
2022/06/16 08:37:09;;;;;;;5.47;2.70;;;23.60;58.50;;;;;;5079532;28;20445;-80
2022/06/16 08:39:35;;;;;;;8.07;2.50;;;23.70;58.00;;;;;;5080155;28;20051;-79
2022/06/16 08:42:28;;;;;;;7.00;2.58;;;23.90;57.80;;;;;;5075641;28;20024;-80
2022/06/16 08:45:05;;;;;;;8.23;2.70;;;24.00;57.50;;;;;;5076707;28;20017;-80
2022/06/16 08:47:52;;;;;;;6.90;2.72;;;24.10;57.40;;;;;;5074491;28;20108;-81
2022/06/16 08:50:36;;;;;;;6.78;2.50;;;24.30;56.00;;;;;;5077039;28;20112;-80
2022/06/16 08:53:26;;;;;;;6.38;2.63;;;24.40;55.80;;;;;;5071762;28;20025;-80
2022/06/16 08:56:18;;;;;;;5.63;2.70;;;24.50;55.50;;;;;;5047312;28;20075;-80
2022/06/16 08:58:44;;;;;;;5.95;2.70;;;24.50;55.00;;;;;;5059465;28;20029;-80
2022/06/16 09:01:17;;;;;;;8.95;3.00;;;24.60;55.60;;;;;;5061852;28;20378;-81
2022/06/16 09:03:51;;;;;;;7.75;3.10;;;24.60;54.70;;;;;;5062515;28;20021;-80
2022/06/16 09:06:20;;;;;;;5.57;2.43;;;24.70;54.20;;;;;;5069848;28;20134;-80
2022/06/16 09:08:51;;;;;;;7.28;2.63;;;24.70;54.10;;;;;;5068938;28;20364;-79
2022/06/16 09:11:28;;;;;;;5.10;2.60;;;24.80;54.00;;;;;;5071070;28;20049;-79
2022/06/16 09:14:10;;;;;;;6.90;2.70;;;24.90;54.20;;;;;;5061177;28;20075;-75
2022/06/16 09:16:54;;;;;;;8.95;3.10;;;25.00;53.60;;;;;;5072295;28;20419;-75
2022/06/16 09:19:40;;;;;;;7.72;3.03;;;25.20;53.10;;;;;;5071917;28;20559;-76
2022/06/16 09:22:34;;;;;;;7.57;3.13;;;25.30;53.20;;;;;;5072024;28;20059;-75
2022/06/16 09:25:25;;;;;;;5.93;2.97;;;25.40;52.10;;;;;;5040778;28;20024;-76
2022/06/16 09:27:57;;;;;;;9.25;2.90;;;25.30;52.10;;;;;;5067694;28;20074;-80
2022/06/16 09:30:30;;;;;;;7.45;2.80;;;25.40;52.60;;;;;;5072001;28;20611;-83
2022/06/16 09:32:59;;;;;;;8.02;3.05;;;25.50;52.10;;;;;;5069562;28;20443;-82
2022/06/16 09:35:44;;;;;;;7.78;2.67;;;25.50;51.60;;;;;;5051292;28;20028;-80
2022/06/16 09:38:32;;;;;;;4.68;2.60;;;25.50;52.40;;;;;;5054213;28;20074;-81
2022/06/16 09:43:57;;;;;;;8.55;3.00;;;25.90;51.60;;;;;;5064032;28;20132;-82
2022/06/16 09:46:32;;;;;;;7.63;2.58;;;26.10;51.40;;;;;;5072978;28;20034;-82
2022/06/16 09:49:26;;;;;;;5.88;2.75;;;26.20;50.40;;;;;;5075835;28;20036;-76
2022/06/16 09:52:02;;;;;;;5.97;3.08;;;26.20;50.80;;;;;;5052197;28;20499;-76
2022/06/16 09:54:36;;;;;;;6.28;2.70;;;26.30;50.80;;;;;;5071797;28;20024;-76
2022/06/16 09:57:25;;;;;;;7.15;2.83;;;26.40;50.70;;;;;;5053825;28;20020;-76
2022/06/16 09:59:56;;;;;;;9.55;3.17;;;26.40;50.30;;;;;;5065186;28;20021;-76
2022/06/16 10:02:39;;;;;;;5.07;2.55;;;26.50;50.30;;;;;;5071555;28;20491;-76
2022/06/16 10:05:11;;;;;;;6.70;2.92;;;26.60;49.60;;;;;;5071000;28;20027;-76
2022/06/16 10:07:47;;;;;;;4.25;2.70;;;26.80;49.40;;;;;;5071511;28;20036;-75
2022/06/16 10:10:40;;;;;;;6.25;3.00;;;26.90;49.60;;;;;;5071264;28;20035;-77
2022/06/16 10:13:31;;;;;;;6.45;3.13;;;27.00;49.30;;;;;;5071299;28;20024;-77
2022/06/16 10:16:46;;;;;;;7.97;2.70;;;27.10;48.90;;;;;;5071484;28;20035;-76
2022/06/16 10:19:11;;;;;;;6.97;2.75;;;27.30;48.40;;;;;;5060377;28;20025;-75
2022/06/16 10:21:37;;;;;;;10.27;3.13;;;27.40;48.50;;;;;;5073010;28;20016;-77
2022/06/16 10:24:05;;;;;;;6.70;2.75;;;27.50;47.50;;;;;;5071085;28;20087;-77
2022/06/16 10:26:30;;;;;;;7.72;2.80;;;27.50;47.50;;;;;;5066063;28;20021;-76
2022/06/16 10:29:23;;;;;;;6.35;2.97;;;27.60;47.80;;;;;;5062152;28;20265;-78
2022/06/16 10:31:50;;;;;;;6.45;2.78;;;27.60;47.40;;;;;;5057748;28;20029;-77
2022/06/16 10:34:20;;;;;;;6.88;3.67;;;27.70;47.50;;;;;;5071451;28;20462;-77
2022/06/16 10:36:56;;;;;;;6.55;2.67;;;27.70;47.30;;;;;;5071383;28;20015;-77
2022/06/16 10:39:31;;;;;;;8.45;3.40;;;27.70;47.40;;;;;;5071059;28;20036;-75
2022/06/16 10:42:02;;;;;;;5.70;3.10;;;27.70;47.50;;;;;;5070904;28;20031;-76
2022/06/16 10:44:32;;;;;;;9.43;2.97;;;27.70;47.20;;;;;;5070806;28;20082;-76
2022/06/16 10:47:01;;;;;;;10.50;3.30;;;27.70;47.50;;;;;;5070518;28;20024;-77
2022/06/16 10:49:33;;;;;;;6.50;3.28;;;27.80;47.60;;;;;;5070655;28;20036;-77
2022/06/16 10:52:11;;;;;;;10.20;3.17;;;27.90;47.20;;;;;;5069996;28;20052;-77
2022/06/16 10:54:44;;;;;;;7.20;3.30;;;28.00;47.80;;;;;;5052573;28;20107;-77
2022/06/16 10:57:22;;;;;;;7.75;3.67;;;28.10;47.30;;;;;;5056568;28;20677;-75
2022/06/16 10:59:57;;;;;;;9.82;3.55;;;28.20;47.30;;;;;;5070767;28;20017;-76
2022/06/16 11:02:25;;;;;;;6.07;3.47;;;28.40;46.80;;;;;;5052463;28;20023;-77
2022/06/16 11:05:04;;;;;;;11.65;3.78;;;28.40;46.20;;;;;;5070533;28;20027;-77
2022/06/16 11:07:41;;;;;;;7.10;3.42;;;28.30;46.00;;;;;;5074514;28;20028;-82
2022/06/16 11:10:14;;;;;;;8.73;5.00;;;28.30;46.30;;;;;;5076716;28;20036;-83
2022/06/16 11:12:45;;;;;;;6.07;3.17;;;28.40;46.60;;;;;;5070605;28;20013;-82
2022/06/16 11:15:38;;;;;;;7.70;3.25;;;28.50;47.10;;;;;;5054996;28;20522;-83
2022/06/16 11:18:09;;;;;;;8.52;3.63;;;28.70;46.60;;;;;;5064915;28;20396;-82
2022/06/16 11:20:39;;;;;;;8.90;3.60;;;28.80;46.40;;;;;;5051663;28;20087;-81
2022/06/16 11:23:31;;;;;;;8.52;4.45;;;28.80;46.10;;;;;;5067974;28;20222;-84
2022/06/16 11:26:15;;;;;;;4.45;3.13;;;28.90;46.00;;;;;;5077428;28;20024;-85
2022/06/16 11:28:48;;;;;;;8.02;3.80;;;29.00;45.70;;;;;;5071131;28;20518;-85
2022/06/16 11:31:18;;;;;;;13.48;3.40;;;29.00;45.50;;;;;;5064226;28;20064;-82
2022/06/16 11:37:03;;;;;;;4.85;3.40;;;29.00;45.70;;;;;;5064946;28;20107;-83
2022/06/16 11:40:03;;;;;;;10.10;3.25;;;29.10;45.30;;;;;;5061410;28;20020;-83
2022/06/16 11:42:53;;;;;;;6.38;2.80;;;29.10;45.20;;;;;;5064633;28;20126;-84
2022/06/16 11:45:44;;;;;;;10.13;3.15;;;29.30;45.50;;;;;;5067695;28;20051;-83
2022/06/16 11:48:46;;;;;;;9.40;3.35;;;29.40;45.10;;;;;;5068708;28;20036;-84
2022/06/16 11:51:43;;;;;;;7.60;2.85;;;29.40;45.20;;;;;;5067022;28;20020;-84
2022/06/16 11:54:18;;;;;;;5.90;3.47;;;29.60;44.60;;;;;;5064333;28;20069;-83
2022/06/16 11:57:10;;;;;;;10.18;3.10;;;29.50;44.30;;;;;;5050871;28;20028;-80
2022/06/16 11:59:46;;;;;;;6.88;2.78;;;29.30;44.60;;;;;;5055998;28;20566;-79
2022/06/16 12:02:43;;;;;;;7.38;3.17;;;29.30;44.60;;;;;;5057618;28;20472;-80
2022/06/16 12:05:27;;;;;;;4.75;3.00;;;29.20;43.90;;;;;;4989805;28;20035;-78
2022/06/16 12:08:34;;;;;;;6.75;2.83;;;29.10;44.20;;;;;;4990959;28;20034;-80
2022/06/16 12:11:09;;;;;;;4.93;2.47;;;29.10;44.50;;;;;;4987907;28;20062;-80
2022/06/16 12:13:49;;;;;;;6.43;2.42;;;29.10;44.80;;;;;;4989541;28;20024;-78
2022/06/16 12:16:31;;;;;;;7.95;2.75;;;29.30;44.80;;;;;;4988261;28;20643;-78
2022/06/16 12:19:16;;;;;;;3.53;2.50;;;29.50;44.30;;;;;;4988639;28;20177;-80
2022/06/16 12:22:01;;;;;;;5.68;2.58;;;29.50;43.90;;;;;;4990582;28;20077;-82
2022/06/16 12:24:38;;;;;;;4.67;2.70;;;29.70;43.80;;;;;;4988267;28;20030;-81
2022/06/16 12:27:09;;;;;;;5.97;2.90;;;29.80;43.80;;;;;;4991995;28;20030;-82
2022/06/16 12:29:53;;;;;;;7.57;3.40;;;29.90;43.80;;;;;;4993383;28;20036;-81
2022/06/16 12:32:51;;;;;;;6.75;2.60;;;29.90;43.30;;;;;;4994786;28;20037;-82
2022/06/16 12:35:37;;;;;;;6.82;3.00;;;29.70;43.60;;;;;;4994776;28;20372;-81
2022/06/16 12:38:07;;;;;;;5.72;2.72;;;29.70;43.60;;;;;;4984824;28;20038;-81
2022/06/16 12:40:48;;;;;;;5.00;2.80;;;29.60;43.70;;;;;;4994842;28;20110;-82
2022/06/16 12:43:49;;;;;;;6.38;2.60;;;29.70;43.60;;;;;;5068897;28;20512;-81
2022/06/16 12:46:22;;;;;;;5.15;2.80;;;29.90;43.40;;;;;;5051186;28;20485;-82
2022/06/16 12:48:52;;;;;;;7.88;2.80;;;29.90;43.20;;;;;;5070324;28;20025;-82
2022/06/16 12:51:27;;;;;;;8.13;2.60;;;29.90;43.20;;;;;;5069511;28;20025;-85
2022/06/16 12:54:06;;;;;;;5.88;2.90;;;30.00;43.30;;;;;;5074841;28;20078;-83
2022/06/16 12:56:34;;;;;;;4.28;2.70;;;30.00;43.40;;;;;;5076675;28;20101;-82
2022/06/16 12:59:18;;;;;;;5.22;3.05;;;30.00;43.50;;;;;;5072356;28;20024;-82
2022/06/16 13:01:47;;;;;;;8.18;3.00;;;30.10;43.50;;;;;;5065525;28;20119;-80
2022/06/16 13:04:22;;;;;;;4.72;2.72;;;30.20;43.50;;;;;;5077472;28;20009;-81
2022/06/16 13:06:47;;;;;;;;;;;30.30;42.90;;;;;;5077325;28;20095;-81
2022/06/16 13:09:14;;;;;;;6.05;2.70;;;30.20;42.60;;;;;;5059915;28;19930;-82
2022/06/16 13:11:57;;;;;;;5.13;2.50;;;30.30;43.10;;;;;;5064802;28;20041;-81
2022/06/16 13:14:49;;;;;;;5.47;2.33;;;30.40;42.80;;;;;;5063568;28;20035;-82
2022/06/16 13:17:15;;;;;;;6.60;2.53;;;30.50;42.40;;;;;;5075851;28;20468;-80
2022/06/16 13:19:47;;;;;;;4.43;2.90;;;30.50;43.30;;;;;;5058087;28;20027;-82
2022/06/16 13:22:27;;;;;;;7.13;2.60;;;30.60;42.40;;;;;;5073597;28;20044;-82
2022/06/16 13:24:59;;;;;;;5.20;2.53;;;30.60;41.90;;;;;;5059154;28;20056;-83
2022/06/16 13:27:31;;;;;;;5.88;2.67;;;30.60;42.30;;;;;;5055505;28;20119;-73
2022/06/16 13:30:18;;;;;;;4.53;2.47;;;30.60;42.60;;;;;;5073678;28;20472;-78
2022/06/16 13:32:50;;;;;;;6.75;3.03;;;30.80;42.80;;;;;;5055480;28;20037;-77
2022/06/16 13:35:15;;;;;;;4.32;2.78;;;30.80;42.30;;;;;;5073584;28;20074;-78
2022/06/16 13:38:20;;;;;;;6.63;2.80;;;30.60;41.70;;;;;;5073699;28;20028;-79